Time;durP1;ratioP1;P1;durP2;ratioP2;P2;SDS_P1;SDS_P2;PMS_P1;PMS_P2;Temp;Humidity;BMP_temperature;BMP_pressure;BME280_temperature;BME280_humidity;BME280_pressure;Samples;Min_cycle;Max_cycle;Signal;HPM_P1;HPM_P2
2023/03/12 07:40:55;;;;;;;4.73;3.53;;;2.60;99.90;;;;;;5074515;28;20618;-78
2023/03/12 07:47:24;;;;;;;15.10;10.10;;;2.60;99.90;;;;;;5134946;27;20278;-78
2023/03/12 07:55:33;;;;;;;10.57;5.63;;;2.60;99.90;;;;;;5120978;27;20276;-79
2023/03/12 08:17:07;;;;;;;4.00;2.20;;;2.80;99.90;;;;;;5135870;27;20744;-79
2023/03/12 08:22:57;;;;;;;2.10;1.90;;;3.20;99.90;;;;;;5136003;27;20628;-79
2023/03/12 08:26:50;;;;;;;3.63;2.87;;;3.40;99.90;;;;;;5116287;27;20561;-80
2023/03/12 08:42:39;;;;;;;3.93;1.87;;;4.20;99.90;;;;;;5136907;27;20268;-80
2023/03/12 08:48:28;;;;;;;1.90;1.70;;;4.50;99.90;;;;;;5136344;27;20267;-79
2023/03/12 08:54:44;;;;;;;2.70;2.20;;;4.80;99.90;;;;;;5135310;27;20282;-80
2023/03/12 08:59:07;;;;;;;3.23;2.93;;;4.90;99.90;;;;;;5135376;27;20300;-79
2023/03/12 09:03:21;;;;;;;3.33;2.63;;;5.10;99.90;;;;;;5136609;27;20287;-79
2023/03/12 09:05:47;;;;;;;3.17;2.40;;;5.20;99.90;;;;;;5121584;28;20176;-79
2023/03/12 09:10:49;;;;;;;5.97;4.27;;;;;;;;;;5143498;27;20274;-79
2023/03/12 09:14:59;;;;;;;3.90;2.87;;;5.60;99.90;;;;;;5115966;27;20635;-81
2023/03/12 09:19:45;;;;;;;2.30;2.10;;;;;;;;;;5136645;27;20290;-80
2023/03/12 09:22:11;;;;;;;3.30;3.00;;;5.60;99.90;;;;;;5135428;28;20173;-80
2023/03/12 09:24:37;;;;;;;2.80;2.57;;;5.90;99.90;;;;;;5136011;28;20170;-80
2023/03/12 09:27:03;;;;;;;2.63;2.43;;;6.00;99.90;;;;;;5135959;28;20177;-80
2023/03/12 09:29:29;;;;;;;2.63;2.40;;;;;;;;;;5138807;28;20202;-81
2023/03/12 09:31:55;;;;;;;3.50;3.20;;;6.40;99.90;;;;;;5139360;28;20181;-80
2023/03/12 09:34:21;;;;;;;2.80;2.50;;;;;;;;;;5140673;27;20208;-79
2023/03/12 09:36:47;;;;;;;2.67;2.47;;;;;;;;;;5137074;28;20174;-80
2023/03/12 09:39:13;;;;;;;4.53;2.90;;;;;;;;;;5138672;28;20294;-80
2023/03/12 09:41:40;;;;;;;5.07;3.10;;;6.30;99.90;;;;;;5140248;28;20205;-80
2023/03/12 09:44:34;;;;;;;2.60;2.20;;;6.10;99.90;;;;;;5135326;28;20181;-80
2023/03/12 09:47:07;;;;;;;2.93;2.43;;;6.30;99.90;;;;;;5137542;27;20600;-80
2023/03/12 09:49:55;;;;;;;2.50;2.30;;;6.60;99.90;;;;;;5141834;28;20207;-80
2023/03/12 09:52:37;;;;;;;2.10;1.90;;;6.40;99.90;;;;;;5140694;27;20176;-81
2023/03/12 09:55:07;;;;;;;2.57;2.37;;;6.30;99.90;;;;;;5136258;27;20254;-81
2023/03/12 09:57:33;;;;;;;4.30;2.70;;;6.20;99.90;;;;;;5136319;27;20190;-79
2023/03/12 09:59:59;;;;;;;5.13;3.10;;;;;;;;;;5136221;27;20285;-79
2023/03/12 10:05:50;;;;;;;2.47;2.20;;;6.30;99.90;;;;;;5136486;27;20278;-81
2023/03/12 10:08:47;;;;;;;2.80;2.50;;;6.10;99.90;;;;;;5138194;28;20188;-81
2023/03/12 10:11:47;;;;;;;2.40;2.20;;;6.30;99.90;;;;;;5135214;28;20174;-81
2023/03/12 10:14:42;;;;;;;2.33;2.13;;;6.40;99.90;;;;;;5136260;27;20167;-80
2023/03/12 10:17:26;;;;;;;3.50;2.10;;;6.40;99.90;;;;;;5135640;27;20613;-80
2023/03/12 10:20:41;;;;;;;3.23;2.50;;;6.60;99.90;;;;;;5134021;28;20197;-81
2023/03/12 10:23:22;;;;;;;1.90;1.80;;;6.90;99.90;;;;;;5094588;28;20654;-81
2023/03/12 10:25:58;;;;;;;1.77;1.67;;;6.80;99.90;;;;;;5077881;28;20195;-81
2023/03/12 10:28:50;;;;;;;4.27;2.57;;;6.70;99.90;;;;;;5111889;28;20194;-81
2023/03/12 10:31:30;;;;;;;3.30;2.70;;;6.70;99.90;;;;;;5135837;27;20171;-80
2023/03/12 10:33:59;;;;;;;2.77;2.33;;;6.60;99.90;;;;;;5137571;27;20651;-83
2023/03/12 10:36:44;;;;;;;3.40;2.43;;;6.90;99.90;;;;;;5135519;27;20259;-80
2023/03/12 10:39:15;;;;;;;1.90;1.80;;;6.70;99.90;;;;;;5133728;28;20202;-80
2023/03/12 10:41:43;;;;;;;2.57;1.90;;;6.60;99.90;;;;;;5135709;27;20647;-80
2023/03/12 10:44:17;;;;;;;2.07;1.90;;;6.90;99.90;;;;;;5137790;27;20199;-82
2023/03/12 10:46:52;;;;;;;1.60;1.50;;;6.70;99.90;;;;;;5137750;27;20210;-79
2023/03/12 10:49:20;;;;;;;2.47;1.63;;;6.40;99.90;;;;;;5136206;27;20209;-81
2023/03/12 10:51:58;;;;;;;2.00;1.57;;;6.60;99.90;;;;;;5137318;27;20170;-80
2023/03/12 10:54:31;;;;;;;4.00;2.33;;;6.60;99.90;;;;;;5135572;27;20628;-80
2023/03/12 10:56:58;;;;;;;2.63;2.43;;;6.70;99.90;;;;;;5134982;27;20574;-81
2023/03/12 10:59:29;;;;;;;2.87;2.27;;;7.10;99.90;;;;;;5134511;28;20206;-80
2023/03/12 11:01:56;;;;;;;5.90;3.87;;;7.00;99.90;;;;;;5137090;27;20204;-80
2023/03/12 11:04:30;;;;;;;2.93;1.63;;;7.00;99.90;;;;;;5134401;27;20210;-81
2023/03/12 11:07:14;;;;;;;2.50;1.80;;;7.20;99.90;;;;;;5136024;27;20169;-81
2023/03/12 11:09:39;;;;;;;2.30;2.00;;;7.00;99.90;;;;;;5134677;28;20202;-81
2023/03/12 11:12:25;;;;;;;1.70;1.60;;;7.10;99.90;;;;;;5134694;28;20181;-81
2023/03/12 11:14:51;;;;;;;1.40;1.30;;;7.10;99.90;;;;;;5134406;27;20179;-80
2023/03/12 11:17:27;;;;;;;2.23;1.40;;;7.20;99.90;;;;;;5120891;28;20191;-81
2023/03/12 11:19:53;;;;;;;1.60;1.50;;;7.40;99.90;;;;;;5121103;28;20205;-82
2023/03/12 11:22:33;;;;;;;1.63;1.20;;;7.50;99.90;;;;;;5120145;28;20233;-81
2023/03/12 11:25:05;;;;;;;4.87;2.90;;;7.50;99.90;;;;;;5121148;28;20552;-82
2023/03/12 11:27:35;;;;;;;2.47;2.13;;;7.40;99.90;;;;;;5119770;28;20219;-82
2023/03/12 11:30:04;;;;;;;3.43;2.20;;;7.50;99.90;;;;;;5119277;28;20205;-81
2023/03/12 11:32:40;;;;;;;3.57;2.70;;;7.70;99.90;;;;;;5118699;28;20613;-81
2023/03/12 11:35:15;;;;;;;2.83;1.87;;;7.50;99.90;;;;;;5120695;28;20176;-81
2023/03/12 11:37:53;;;;;;;1.90;1.70;;;7.60;99.90;;;;;;5119588;28;20179;-81
2023/03/12 11:40:40;;;;;;;4.70;2.23;;;7.70;99.90;;;;;;5122379;28;20195;-84
2023/03/12 11:43:30;;;;;;;1.27;1.17;;;7.60;99.90;;;;;;5120935;28;20266;-83
2023/03/12 11:46:01;;;;;;;2.23;1.67;;;7.70;99.90;;;;;;5119675;28;20187;-82
2023/03/12 11:48:39;;;;;;;5.07;2.60;;;7.50;99.90;;;;;;5119107;28;20182;-82
2023/03/12 11:51:42;;;;;;;19.50;8.93;;;7.90;99.90;;;;;;5119523;28;20182;-82
2023/03/12 11:54:43;;;;;;;3.90;1.93;;;7.90;99.90;;;;;;5120535;28;20183;-80
2023/03/12 11:57:36;;;;;;;2.93;1.43;;;7.80;99.90;;;;;;5119127;28;20758;-81
2023/03/12 12:00:16;;;;;;;2.33;1.70;;;8.00;99.90;;;;;;5118552;28;20207;-81
2023/03/12 12:02:47;;;;;;;2.77;1.80;;;8.10;99.90;;;;;;5119307;28;20224;-81
2023/03/12 12:05:25;;;;;;;3.10;1.60;;;8.00;99.90;;;;;;5120403;28;20215;-84
2023/03/12 12:08:21;;;;;;;2.17;1.30;;;8.30;99.90;;;;;;5120999;28;20174;-81
2023/03/12 12:10:46;;;;;;;3.70;1.90;;;8.20;99.90;;;;;;5124349;28;20180;-82
2023/03/12 12:13:31;;;;;;;5.00;2.07;;;8.00;99.90;;;;;;5128657;28;20209;-82
2023/03/12 12:16:03;;;;;;;3.23;1.70;;;8.30;99.90;;;;;;5128866;28;20183;-82
2023/03/12 12:18:31;;;;;;;1.80;1.50;;;8.50;99.90;;;;;;5125891;28;20191;-83
2023/03/12 12:21:22;;;;;;;2.70;1.83;;;8.60;99.90;;;;;;5124229;28;20626;-82
2023/03/12 12:24:09;;;;;;;2.33;1.70;;;9.30;99.90;;;;;;5128410;27;20266;-83
2023/03/12 12:26:45;;;;;;;1.83;1.60;;;9.60;99.90;;;;;;5120480;28;20175;-81
2023/03/12 12:29:24;;;;;;;1.90;1.30;;;9.50;99.90;;;;;;5119461;28;20187;-81
2023/03/12 12:31:58;;;;;;;1.60;1.40;;;9.50;99.90;;;;;;5121667;28;20213;-83
2023/03/12 12:34:52;;;;;;;1.90;1.20;;;9.50;99.90;;;;;;5121059;28;20194;-82
2023/03/12 12:37:30;;;;;;;2.27;1.27;;;9.50;99.90;;;;;;5119524;28;20179;-82
2023/03/12 12:40:07;;;;;;;1.90;1.30;;;9.70;99.90;;;;;;5119344;28;20252;-82
2023/03/12 12:42:46;;;;;;;2.37;1.10;;;9.60;99.90;;;;;;5119633;28;20654;-84
2023/03/12 12:45:14;;;;;;;2.13;1.20;;;9.60;99.90;;;;;;5121503;28;20244;-81
2023/03/12 12:47:48;;;;;;;1.10;1.00;;;9.30;99.90;;;;;;5121513;28;20175;-80
2023/03/12 12:50:21;;;;;;;1.20;1.00;;;10.90;99.90;;;;;;5121636;28;20240;-81
2023/03/12 12:52:53;;;;;;;1.83;0.97;;;10.80;99.90;;;;;;5121271;28;20168;-83
2023/03/12 12:55:25;;;;;;;3.13;1.80;;;10.20;99.90;;;;;;5124981;28;20203;-81
2023/03/12 12:57:57;;;;;;;8.27;4.00;;;9.90;99.90;;;;;;5138252;28;20196;-80
2023/03/12 13:00:58;;;;;;;8.77;4.60;;;9.70;99.90;;;;;;5137556;28;20198;-81
2023/03/12 13:03:26;;;;;;;3.27;2.10;;;9.70;99.90;;;;;;5122099;28;20190;-82
2023/03/12 13:05:54;;;;;;;2.80;1.57;;;9.20;99.90;;;;;;5137340;28;20276;-82
2023/03/12 13:08:44;;;;;;;1.60;1.10;;;9.20;99.90;;;;;;5134793;28;20176;-80
2023/03/12 13:11:16;;;;;;;1.97;1.30;;;9.60;99.90;;;;;;5132331;28;20171;-82
2023/03/12 13:13:43;;;;;;;1.40;1.13;;;9.50;99.90;;;;;;5136780;28;20159;-82
2023/03/12 13:16:16;;;;;;;1.17;0.90;;;;;;;;;;5135512;28;20203;-82
2023/03/12 13:18:56;;;;;;;2.23;1.17;;;9.30;99.90;;;;;;5134233;28;20199;-81
2023/03/12 13:21:38;;;;;;;3.07;1.47;;;9.30;99.90;;;;;;5133208;28;20173;-80
2023/03/12 13:24:09;;;;;;;2.47;1.33;;;9.10;99.90;;;;;;5121863;28;20245;-82
2023/03/12 13:27:00;;;;;;;1.60;1.23;;;9.00;99.90;;;;;;5118780;28;20168;-81
2023/03/12 13:29:28;;;;;;;1.10;0.67;;;9.40;99.90;;;;;;5117540;28;20289;-82
2023/03/12 13:31:56;;;;;;;1.87;1.00;;;9.20;99.90;;;;;;5118115;28;20243;-84
2023/03/12 13:34:23;;;;;;;1.93;1.50;;;;;;;;;;5118524;28;20266;-81
2023/03/12 13:36:58;;;;;;;1.10;0.80;;;9.00;99.90;;;;;;5117821;28;20263;-82
2023/03/12 13:39:31;;;;;;;0.60;0.60;;;9.30;99.90;;;;;;5116982;28;20203;-83
2023/03/12 13:41:59;;;;;;;2.83;0.87;;;9.50;99.90;;;;;;5116963;28;20175;-82
2023/03/12 13:44:37;;;;;;;0.70;0.60;;;10.40;99.90;;;;;;5119024;28;20198;-83
2023/03/12 13:47:17;;;;;;;2.57;1.30;;;11.30;99.90;;;;;;5117239;28;20167;-80
2023/03/12 13:49:51;;;;;;;3.37;2.00;;;10.60;99.90;;;;;;5118835;28;20274;-82
2023/03/12 13:52:29;;;;;;;1.83;1.10;;;9.50;99.90;;;;;;5115733;28;20182;-82
2023/03/12 13:55:00;;;;;;;3.33;1.40;;;9.50;99.90;;;;;;5116572;28;20179;-82
2023/03/12 13:57:52;;;;;;;6.87;3.60;;;9.40;99.90;;;;;;5117719;28;20525;-83
2023/03/12 14:00:17;;;;;;;12.23;4.77;;;9.20;99.90;;;;;;5117605;28;20192;-83
2023/03/12 14:03:02;;;;;;;2.20;1.60;;;9.30;99.90;;;;;;5121393;28;20172;-84
2023/03/12 14:05:31;;;;;;;6.77;2.87;;;9.10;99.90;;;;;;5118468;28;20215;-80
2023/03/12 14:08:13;;;;;;;3.90;2.23;;;8.80;99.90;;;;;;5117840;28;20182;-82
2023/03/12 14:10:55;;;;;;;4.97;1.37;;;8.80;99.90;;;;;;5117689;28;20289;-81
2023/03/12 14:13:33;;;;;;;2.57;1.30;;;8.70;99.90;;;;;;5116770;28;20178;-81
2023/03/12 14:16:26;;;;;;;2.90;1.50;;;9.00;99.90;;;;;;5119723;28;20224;-82
2023/03/12 14:18:53;;;;;;;8.97;2.97;;;9.50;99.90;;;;;;5120920;28;20194;-82
2023/03/12 14:21:21;;;;;;;2.90;1.43;;;10.40;99.90;;;;;;5119428;28;20174;-83
2023/03/12 14:23:55;;;;;;;10.20;3.37;;;11.60;99.90;;;;;;5114932;28;20608;-81
2023/03/12 14:26:26;;;;;;;4.93;1.73;;;11.50;99.90;;;;;;5115045;28;20199;-81
2023/03/12 14:29:09;;;;;;;11.60;4.07;;;12.20;99.90;;;;;;5116287;28;20188;-81
2023/03/12 14:31:37;;;;;;;4.07;1.47;;;12.80;99.90;;;;;;5115970;28;20167;-80
2023/03/12 14:34:21;;;;;;;2.03;1.10;;;12.80;99.90;;;;;;5117786;28;20179;-82
2023/03/12 14:37:09;;;;;;;7.33;2.77;;;12.50;99.90;;;;;;5117804;28;20172;-82
2023/03/12 14:39:42;;;;;;;10.93;3.30;;;10.90;99.90;;;;;;5115678;28;20316;-82
2023/03/12 14:42:09;;;;;;;4.03;2.23;;;11.00;99.90;;;;;;5115738;28;20176;-84
2023/03/12 14:44:38;;;;;;;2.60;1.20;;;10.00;99.90;;;;;;5115797;28;20214;-84
2023/03/12 14:47:08;;;;;;;2.23;1.23;;;10.00;99.90;;;;;;5116641;28;20645;-84
2023/03/12 14:49:43;;;;;;;4.83;2.23;;;9.80;99.90;;;;;;5115508;28;20657;-80
2023/03/12 14:52:24;;;;;;;7.10;2.90;;;9.80;99.90;;;;;;5118657;28;20209;-81
2023/03/12 14:54:58;;;;;;;5.30;2.80;;;9.80;99.90;;;;;;5120806;28;20171;-81
2023/03/12 14:57:24;;;;;;;2.23;1.40;;;9.60;99.90;;;;;;5120671;28;20172;-81
2023/03/12 14:59:56;;;;;;;5.63;2.83;;;9.50;99.90;;;;;;5121073;28;20195;-82
2023/03/12 15:02:23;;;;;;;2.70;2.03;;;9.20;99.90;;;;;;5120262;28;20189;-82
2023/03/12 15:04:51;;;;;;;3.40;1.77;;;9.20;99.90;;;;;;5120979;28;20210;-81
2023/03/12 15:07:22;;;;;;;2.63;1.97;;;9.20;99.90;;;;;;5120924;28;20195;-81
2023/03/12 15:09:50;;;;;;;2.93;1.70;;;9.10;99.90;;;;;;5119929;28;20199;-81
2023/03/12 15:12:20;;;;;;;1.97;0.83;;;9.10;99.90;;;;;;5121065;28;20163;-81
2023/03/12 15:14:48;;;;;;;2.00;1.33;;;9.20;99.90;;;;;;5120744;28;20175;-81
2023/03/12 15:17:18;;;;;;;1.83;1.00;;;9.30;99.90;;;;;;5121141;28;20179;-83
2023/03/12 15:19:45;;;;;;;3.07;1.60;;;9.10;99.90;;;;;;5121244;28;20240;-82
2023/03/12 15:22:22;;;;;;;2.77;1.40;;;9.00;99.90;;;;;;5121025;28;20176;-82
2023/03/12 15:24:48;;;;;;;1.67;1.03;;;9.00;99.90;;;;;;5119459;28;20201;-81
2023/03/12 15:27:20;;;;;;;2.80;1.40;;;8.90;99.90;;;;;;5122830;28;20170;-81
2023/03/12 15:29:46;;;;;;;1.33;0.90;;;8.90;99.90;;;;;;5119233;28;20188;-83
2023/03/12 15:32:14;;;;;;;2.53;1.30;;;8.90;99.90;;;;;;5120022;28;20229;-83
2023/03/12 15:34:40;;;;;;;2.13;0.90;;;8.80;99.90;;;;;;5120092;28;20179;-82
2023/03/12 15:37:28;;;;;;;1.20;1.10;;;8.80;99.90;;;;;;5119846;28;20174;-82
2023/03/12 15:39:55;;;;;;;2.67;1.30;;;8.90;99.90;;;;;;5122045;28;20532;-84
2023/03/12 15:42:23;;;;;;;2.53;1.53;;;8.90;99.90;;;;;;5119971;28;20180;-85
2023/03/12 15:45:03;;;;;;;2.47;1.30;;;9.10;99.90;;;;;;5119337;28;20609;-83
2023/03/12 15:47:32;;;;;;;5.27;1.47;;;8.80;99.90;;;;;;5119205;28;20179;-83
2023/03/12 15:50:00;;;;;;;9.33;5.87;;;9.00;99.90;;;;;;5121034;28;20194;-83
2023/03/12 15:52:29;;;;;;;3.00;1.67;;;8.90;99.90;;;;;;5119962;28;20167;-82
2023/03/12 15:55:12;;;;;;;7.80;4.77;;;8.90;99.90;;;;;;5120271;28;20178;-82
2023/03/12 15:57:55;;;;;;;1.77;1.60;;;9.00;99.90;;;;;;5122133;28;20175;-83
2023/03/12 16:00:29;;;;;;;3.63;3.20;;;9.00;99.90;;;;;;5119829;28;20588;-83
2023/03/12 16:03:04;;;;;;;2.03;1.47;;;8.80;99.90;;;;;;5121206;28;20181;-84
2023/03/12 16:05:36;;;;;;;2.17;0.97;;;8.60;99.90;;;;;;5119282;28;20221;-85
2023/03/12 16:08:28;;;;;;;4.97;2.57;;;8.70;99.90;;;;;;5121124;28;20177;-82
2023/03/12 16:10:54;;;;;;;3.60;1.00;;;8.40;99.90;;;;;;5120691;28;20633;-82
2023/03/12 16:13:25;;;;;;;2.87;1.23;;;8.60;99.90;;;;;;5124000;28;20172;-81
2023/03/12 16:15:51;;;;;;;3.73;1.33;;;;;;;;;;5123466;28;20185;-82
2023/03/12 16:18:19;;;;;;;4.47;1.63;;;8.30;99.90;;;;;;5122992;28;20247;-82
2023/03/12 16:20:46;;;;;;;3.13;2.20;;;8.30;99.90;;;;;;5122506;28;20206;-82
2023/03/12 16:23:12;;;;;;;5.93;2.40;;;8.30;99.90;;;;;;5123427;28;20232;-82
2023/03/12 16:25:40;;;;;;;4.40;2.30;;;8.30;99.90;;;;;;5124810;28;20311;-81
2023/03/12 16:28:06;;;;;;;4.30;2.20;;;8.20;99.90;;;;;;5120263;28;20260;-83
2023/03/12 16:30:35;;;;;;;5.77;2.13;;;8.10;99.90;;;;;;5117898;28;20291;-82
